createdAt,value
2022-09-06T00:00:26.562Z,98021.19
2022-09-06T00:02:54.931Z,98016.13
2022-09-06T00:05:23.263Z,98020.31
2022-09-06T00:07:51.627Z,98020.63
2022-09-06T00:10:21.542Z,98014.91
2022-09-06T00:12:49.855Z,98014.25
2022-09-06T00:15:18.435Z,98015.06
2022-09-06T00:17:46.707Z,98014.09
2022-09-06T00:20:15.045Z,98012.19
2022-09-06T00:22:43.407Z,98015.72
2022-09-06T00:25:12.023Z,98016.09
2022-09-06T00:27:41.796Z,98012.63
2022-09-06T00:30:11.686Z,98014.66
2022-09-06T00:32:39.941Z,98009.47
2022-09-06T00:35:08.676Z,98021.81
2022-09-06T00:37:36.944Z,98017.31
2022-09-06T00:40:05.724Z,98020.41
2022-09-06T00:42:34.011Z,98015.31
2022-09-06T00:45:03.953Z,98016.25
2022-09-06T00:47:32.363Z,98016.22
2022-09-06T00:50:01.188Z,98010.34
2022-09-06T00:52:29.626Z,98010.78
2022-09-06T00:54:58.097Z,98000.97
2022-09-06T00:57:27.385Z,98002.00
2022-09-06T00:59:56.485Z,97998.53
2022-09-06T01:02:26.263Z,97991.66
2022-09-06T01:04:55.042Z,97986.13
2022-09-06T01:07:31.370Z,97986.72
2022-09-06T01:10:10.002Z,97983.34
2022-09-06T01:12:45.731Z,97982.59
2022-09-06T01:15:22.904Z,97982.53
2022-09-06T01:18:00.391Z,97974.75
2022-09-06T01:20:46.632Z,97980.97
2022-09-06T01:24:05.618Z,97974.00
2022-09-06T01:27:15.227Z,97970.38
2022-09-06T01:29:47.428Z,97965.16
2022-09-06T01:32:20.994Z,97966.91
2022-09-06T01:34:53.943Z,97959.47
2022-09-06T01:37:24.656Z,97963.00
2022-09-06T01:39:53.104Z,97953.47
2022-09-06T01:42:23.524Z,97945.66
2022-09-06T01:44:55.950Z,97956.03
2022-09-06T01:47:33.266Z,97951.72
2022-09-06T01:50:21.125Z,97959.22
2022-09-06T01:52:58.776Z,97956.09
2022-09-06T01:55:32.214Z,97949.50
2022-09-06T01:58:17.357Z,97942.75
2022-09-06T02:00:55.154Z,97943.06
2022-09-06T02:03:33.565Z,97948.72
2022-09-06T02:06:06.537Z,97957.38
2022-09-06T02:08:36.911Z,97947.78
2022-09-06T02:11:07.384Z,97949.59
2022-09-06T02:13:39.666Z,97941.75
2022-09-06T02:16:11.154Z,97945.53
2022-09-06T02:18:43.198Z,97942.22
2022-09-06T02:21:13.703Z,97936.22
2022-09-06T02:23:44.396Z,97934.63
2022-09-06T02:26:15.153Z,97935.38
2022-09-06T02:28:43.565Z,97936.22
2022-09-06T02:31:18.371Z,97932.06
2022-09-06T02:33:47.747Z,97940.13
2022-09-06T02:36:16.859Z,97943.66
2022-09-06T02:38:45.771Z,97941.75
2022-09-06T02:41:15.549Z,97938.44
2022-09-06T02:43:44.075Z,97940.41
2022-09-06T02:46:13.819Z,97936.13
2022-09-06T02:48:42.191Z,97945.88
2022-09-06T02:51:10.962Z,97940.78
2022-09-06T02:53:39.735Z,97928.72
2022-09-06T02:56:08.302Z,97936.19
2022-09-06T02:58:36.888Z,97940.41
2022-09-06T03:01:05.616Z,97941.22
2022-09-06T03:03:35.323Z,97939.81
2022-09-06T03:06:03.654Z,97937.34
2022-09-06T03:08:34.248Z,97935.72
2022-09-06T03:11:02.785Z,97933.19
2022-09-06T03:13:31.354Z,97939.22
2022-09-06T03:16:00.986Z,97939.38
2022-09-06T03:18:30.842Z,97946.28
2022-09-06T03:21:00.755Z,97944.53
2022-09-06T03:23:30.573Z,97942.13
2022-09-06T03:25:59.054Z,97945.56
2022-09-06T03:28:27.895Z,97942.22
2022-09-06T03:30:56.420Z,97937.75
2022-09-06T03:33:25.294Z,97937.09
2022-09-06T03:35:55.476Z,97933.72
2022-09-06T03:38:25.912Z,97932.03
2022-09-06T03:40:54.755Z,97938.03
2022-09-06T03:43:24.272Z,97930.13
2022-09-06T03:45:54.071Z,97931.06
2022-09-06T03:48:23.822Z,97933.81
2022-09-06T03:50:54.305Z,97931.22
2022-09-06T03:53:25.014Z,97925.13
2022-09-06T03:55:54.656Z,97918.16
2022-09-06T03:58:24.470Z,97928.78
2022-09-06T04:01:01.840Z,97929.56
2022-09-06T04:03:30.359Z,97924.28
2022-09-06T04:05:58.689Z,97926.94
2022-09-06T04:08:28.894Z,97934.78
2022-09-06T04:10:57.977Z,97937.31
2022-09-06T04:13:27.096Z,97932.63
2022-09-06T04:15:55.675Z,97930.72
2022-09-06T04:18:24.596Z,97929.88
2022-09-06T04:20:54.103Z,97938.72
2022-09-06T04:23:22.673Z,97931.84
2022-09-06T04:25:53.514Z,97931.91
2022-09-06T04:28:22.666Z,97932.09
2022-09-06T04:30:54.168Z,97920.94
2022-09-06T04:33:25.906Z,97917.56
2022-09-06T04:35:54.786Z,97923.69
2022-09-06T04:38:23.154Z,97922.00
2022-09-06T04:40:55.625Z,97923.69
2022-09-06T04:43:24.294Z,97914.19
2022-09-06T04:45:52.840Z,97916.78
2022-09-06T04:48:21.365Z,97909.81
2022-09-06T04:50:49.681Z,97920.03
2022-09-06T04:53:17.905Z,97915.34
2022-09-06T04:55:46.214Z,97918.88
2022-09-06T04:58:15.813Z,97916.19
2022-09-06T05:00:44.859Z,97918.59
2022-09-06T05:03:13.256Z,97928.16
2022-09-06T05:05:41.574Z,97922.00
2022-09-06T05:08:09.941Z,97933.94
2022-09-06T05:10:38.649Z,97926.97
2022-09-06T05:13:06.873Z,97939.28
2022-09-06T05:15:36.647Z,97923.44
2022-09-06T05:18:05.519Z,97922.50
2022-09-06T05:20:33.901Z,97916.47
2022-09-06T05:23:02.382Z,97925.31
2022-09-06T05:25:31.255Z,97915.88
2022-09-06T05:27:59.572Z,97921.22
2022-09-06T05:30:27.984Z,97924.91
2022-09-06T05:32:57.775Z,97923.50
2022-09-06T05:35:26.166Z,97930.97
2022-09-06T05:37:54.477Z,97933.38
2022-09-06T05:40:22.810Z,97936.47
2022-09-06T05:42:51.160Z,97924.94
2022-09-06T05:45:19.550Z,97930.91
2022-09-06T05:47:47.887Z,97923.75
2022-09-06T05:50:17.878Z,97916.69
2022-09-06T05:52:46.146Z,97919.41
2022-09-06T05:55:14.435Z,97914.59
2022-09-06T05:57:45.041Z,97911.59
2022-09-06T06:00:14.776Z,97909.50
2022-09-06T06:02:43.319Z,97903.44
2022-09-06T06:05:11.632Z,97895.34
2022-09-06T06:07:41.314Z,97904.09
2022-09-06T06:10:10.307Z,97900.47
2022-09-06T06:12:38.900Z,97910.19
2022-09-06T06:15:08.248Z,97904.34
2022-09-06T06:17:36.613Z,97898.47
2022-09-06T06:20:05.266Z,97894.59
2022-09-06T06:22:33.600Z,97884.38
2022-09-06T06:25:03.306Z,97886.25
2022-09-06T06:27:34.147Z,97888.66
2022-09-06T06:30:02.502Z,97874.34
2022-09-06T06:32:30.828Z,97884.44
2022-09-06T06:34:59.182Z,97874.41
2022-09-06T06:37:27.579Z,97868.59
2022-09-06T06:39:55.990Z,97869.81
2022-09-06T06:42:28.159Z,97863.50
2022-09-06T06:44:59.439Z,97863.50
2022-09-06T06:47:27.886Z,97868.97
2022-09-06T06:49:57.531Z,97877.50
2022-09-06T06:52:26.220Z,97881.34
2022-09-06T06:54:54.970Z,97883.56
2022-09-06T06:57:23.541Z,97883.66
2022-09-06T06:59:54.507Z,97878.41
2022-09-06T07:02:22.941Z,97883.44
2022-09-06T07:04:51.368Z,97884.69
2022-09-06T07:07:37.885Z,97880.31
2022-09-06T07:12:57.104Z,97891.16
2022-09-06T07:15:27.365Z,97879.22
2022-09-06T07:17:56.836Z,97881.88
2022-09-06T07:20:26.487Z,97886.31
2022-09-06T07:25:49.907Z,97870.94
2022-09-06T07:28:18.247Z,97890.25
2022-09-06T07:30:48.019Z,97881.69
2022-09-06T07:33:16.310Z,97887.25
2022-09-06T07:35:44.658Z,97882.56
2022-09-06T07:38:13.126Z,97887.00
2022-09-06T07:40:41.831Z,97886.97
2022-09-06T07:43:10.370Z,97878.19
2022-09-06T07:45:38.641Z,97881.13
2022-09-06T07:48:08.402Z,97873.94
2022-09-06T07:53:15.426Z,97875.72
2022-09-06T07:55:45.903Z,97876.38
2022-09-06T07:58:14.379Z,97872.53
2022-09-06T08:00:43.560Z,97866.66
2022-09-06T08:03:13.364Z,97862.69
2022-09-06T08:11:19.227Z,97865.72
2022-09-06T08:13:51.309Z,97868.53
2022-09-06T08:16:20.553Z,97867.81
2022-09-06T08:18:53.368Z,97862.88
2022-09-06T08:21:23.746Z,97856.91
2022-09-06T08:23:53.537Z,97849.59
2022-09-06T08:26:22.987Z,97859.19
2022-09-06T08:28:55.959Z,97854.72
2022-09-06T08:31:24.835Z,97849.91
2022-09-06T08:33:55.733Z,97848.03
2022-09-06T08:36:27.239Z,97846.66
2022-09-06T08:38:55.992Z,97842.13
2022-09-06T08:41:29.522Z,97828.50
2022-09-06T08:46:54.657Z,97822.16
2022-09-06T08:49:25.905Z,97823.16
2022-09-06T08:52:13.581Z,97818.63
2022-09-06T08:54:46.200Z,97820.19
2022-09-06T08:57:21.699Z,97812.16
2022-09-06T08:59:51.856Z,97816.19
2022-09-06T09:02:22.811Z,97818.25
2022-09-06T09:04:53.746Z,97807.63
2022-09-06T09:07:32.479Z,97808.31
2022-09-06T09:10:04.932Z,97801.84
2022-09-06T09:12:33.986Z,97795.59
2022-09-06T09:15:08.854Z,97800.13
2022-09-06T09:17:38.126Z,97787.66
2022-09-06T09:20:09.645Z,97796.63
2022-09-06T09:22:38.457Z,97787.47
2022-09-06T09:25:08.514Z,97787.66
2022-09-06T09:27:37.911Z,97772.03
2022-09-06T09:32:56.560Z,97773.28
2022-09-06T09:35:32.145Z,97766.06
2022-09-06T09:38:11.856Z,97766.91
2022-09-06T09:40:42.758Z,97755.75
2022-09-06T09:43:16.808Z,97756.50
2022-09-06T09:45:46.359Z,97758.94
2022-09-06T09:48:21.492Z,97752.25
2022-09-06T09:50:51.508Z,97746.66
2022-09-06T09:53:22.841Z,97745.63
2022-09-06T09:55:56.809Z,97738.34
2022-09-06T09:58:36.442Z,97731.97
2022-09-06T10:01:13.830Z,97724.88
2022-09-06T10:09:31.126Z,97720.41
2022-09-06T10:12:00.435Z,97726.41
2022-09-06T10:14:31.330Z,97714.56
2022-09-06T10:17:01.139Z,97718.94
2022-09-06T10:19:38.995Z,97714.56
2022-09-06T10:22:20.229Z,97704.72
2022-09-06T10:24:58.406Z,97719.56
2022-09-06T10:27:28.749Z,97715.19
2022-09-06T10:30:01.674Z,97714.59
2022-09-06T10:32:41.753Z,97716.25
2022-09-06T10:35:24.791Z,97702.97
2022-09-06T10:38:13.488Z,97710.94
2022-09-06T10:40:47.292Z,97707.22
2022-09-06T10:43:18.871Z,97713.97
2022-09-06T10:45:49.863Z,97713.84
2022-09-06T10:48:21.115Z,97712.88
2022-09-06T10:50:54.715Z,97702.41
2022-09-06T10:53:39.214Z,97699.81
2022-09-06T10:56:10.174Z,97700.13
2022-09-06T11:01:38.794Z,97699.41
2022-09-06T11:04:12.951Z,97697.50
2022-09-06T11:06:46.708Z,97699.91
2022-09-06T11:09:21.185Z,97688.91
2022-09-06T11:11:54.027Z,97679.53
2022-09-06T11:14:23.056Z,97683.78
2022-09-06T11:16:57.211Z,97673.94
2022-09-06T11:19:28.705Z,97672.69
2022-09-06T11:22:27.395Z,97672.09
2022-09-06T11:25:27.469Z,97673.59
2022-09-06T11:27:58.229Z,97670.28
2022-09-06T11:30:27.421Z,97669.66
2022-09-06T11:33:09.199Z,97666.25
2022-09-06T11:35:37.970Z,97661.28
2022-09-06T11:38:18.687Z,97648.69
2022-09-06T11:40:50.398Z,97652.56
2022-09-06T11:43:20.359Z,97650.59
2022-09-06T11:45:51.028Z,97640.31
2022-09-06T11:49:02.218Z,97641.00
2022-09-06T11:51:36.801Z,97646.19
2022-09-06T11:54:31.097Z,97638.84
2022-09-06T11:57:03.737Z,97634.41
2022-09-06T11:59:37.816Z,97632.94
2022-09-06T12:02:08.018Z,97627.53
2022-09-06T12:05:25.753Z,97623.16
2022-09-06T12:08:13.984Z,97619.22
2022-09-06T12:10:52.469Z,97615.19
2022-09-06T12:13:41.098Z,97626.13
2022-09-06T12:16:14.190Z,97618.03
2022-09-06T12:19:00.691Z,97604.28
2022-09-06T12:21:41.188Z,97601.50
2022-09-06T12:24:11.379Z,97603.75
2022-09-06T12:26:51.889Z,97594.03
2022-09-06T12:29:27.836Z,97600.03
2022-09-06T12:31:56.673Z,97595.88
2022-09-06T12:34:27.099Z,97588.69
2022-09-06T12:36:58.340Z,97585.59
2022-09-06T12:39:26.987Z,97578.59
2022-09-06T12:41:58.120Z,97568.31
2022-09-06T12:44:33.013Z,97577.00
2022-09-06T12:47:05.810Z,97572.44
2022-09-06T12:49:34.323Z,97572.47
2022-09-06T12:52:13.956Z,97571.38
2022-09-06T12:54:47.725Z,97575.31
2022-09-06T12:57:19.897Z,97566.31
2022-09-06T12:59:56.968Z,97563.22
2022-09-06T13:02:31.203Z,97566.16
2022-09-06T13:05:05.516Z,97556.91
2022-09-06T13:07:35.571Z,97558.84
2022-09-06T13:10:04.450Z,97549.16
2022-09-06T13:12:34.782Z,97547.56
2022-09-06T13:15:08.489Z,97548.47
2022-09-06T13:17:38.488Z,97547.56
2022-09-06T13:20:15.172Z,97551.66
2022-09-06T13:22:45.692Z,97543.88
2022-09-06T13:25:23.829Z,97546.41
2022-09-06T13:27:56.647Z,97542.44
2022-09-06T13:30:38.661Z,97542.03
2022-09-06T13:33:08.477Z,97539.75
2022-09-06T13:35:39.121Z,97531.75
2022-09-06T13:38:33.728Z,97541.06
2022-09-06T13:41:12.782Z,97535.78
2022-09-06T13:43:45.073Z,97521.81
2022-09-06T13:46:17.205Z,97525.13
2022-09-06T13:48:45.720Z,97520.56
2022-09-06T13:51:14.191Z,97521.09
2022-09-06T13:53:45.403Z,97506.38
2022-09-06T13:56:19.286Z,97513.91
2022-09-06T13:58:47.628Z,97517.69
2022-09-06T14:01:19.250Z,97511.50
2022-09-06T14:03:50.131Z,97507.72
2022-09-06T14:06:19.413Z,97508.72
2022-09-06T14:09:06.518Z,97511.16
2022-09-06T14:11:36.037Z,97508.34
2022-09-06T14:14:04.620Z,97507.06
2022-09-06T14:16:35.479Z,97511.81
2022-09-06T14:19:04.249Z,97512.75
2022-09-06T14:21:32.871Z,97517.72
2022-09-06T14:24:04.387Z,97517.47
2022-09-06T14:26:35.683Z,97528.97
2022-09-06T14:29:04.730Z,97526.16
2022-09-06T14:31:34.416Z,97526.66
2022-09-06T14:34:04.250Z,97521.03
2022-09-06T14:36:34.509Z,97520.06
2022-09-06T14:39:03.488Z,97522.53
2022-09-06T14:41:31.729Z,97519.31
2022-09-06T14:44:00.468Z,97518.56
2022-09-06T14:46:29.786Z,97516.69
2022-09-06T14:49:01.692Z,97524.94
2022-09-06T14:51:30.840Z,97521.53
2022-09-06T14:54:01.094Z,97523.13
2022-09-06T14:56:31.231Z,97525.66
2022-09-06T14:59:03.545Z,97518.88
2022-09-06T15:01:38.917Z,97518.41
2022-09-06T15:04:11.086Z,97516.84
2022-09-06T15:06:47.804Z,97511.75
2022-09-06T15:09:18.555Z,97509.53
2022-09-06T15:11:49.346Z,97507.63
2022-09-06T15:14:19.142Z,97508.13
2022-09-06T15:16:50.898Z,97504.47
2022-09-06T15:19:25.522Z,97496.72
2022-09-06T15:21:54.010Z,97503.25
2022-09-06T15:24:22.862Z,97496.72
2022-09-06T15:26:51.249Z,97507.25
2022-09-06T15:29:20.473Z,97506.78
2022-09-06T15:31:50.605Z,97504.56
2022-09-06T15:34:19.938Z,97497.06
2022-09-06T15:36:49.752Z,97496.81
2022-09-06T15:39:18.757Z,97497.16
2022-09-06T15:41:47.157Z,97505.34
2022-09-06T15:44:17.093Z,97500.47
2022-09-06T15:46:48.290Z,97503.69
2022-09-06T15:49:18.089Z,97503.28
2022-09-06T15:51:46.749Z,97493.75
2022-09-06T15:54:18.197Z,97491.81
2022-09-06T15:56:45.605Z,97501.81
2022-09-06T15:59:14.027Z,97499.31
2022-09-06T16:01:42.384Z,97507.13
2022-09-06T16:04:11.254Z,97508.66
2022-09-06T16:06:42.755Z,97512.38
2022-09-06T16:09:14.196Z,97508.28
2022-09-06T16:11:43.966Z,97513.06
2022-09-06T16:14:13.848Z,97521.31
2022-09-06T16:16:43.577Z,97518.91
2022-09-06T16:19:12.955Z,97519.16
2022-09-06T16:21:44.162Z,97516.44
2022-09-06T16:24:13.982Z,97521.34
2022-09-06T16:26:46.311Z,97523.25
2022-09-06T16:29:16.459Z,97530.13
2022-09-06T16:31:45.070Z,97524.53
2022-09-06T16:34:13.740Z,97525.72
2022-09-06T16:36:42.273Z,97533.31
2022-09-06T16:39:10.975Z,97529.41
2022-09-06T16:41:41.102Z,97531.09
2022-09-06T16:44:16.309Z,97535.81
2022-09-06T16:46:46.122Z,97530.59
2022-09-06T16:49:16.986Z,97537.50
2022-09-06T16:51:45.788Z,97527.31
2022-09-06T16:54:15.670Z,97532.44
2022-09-06T16:56:44.283Z,97531.38
2022-09-06T16:59:15.315Z,97529.31
2022-09-06T17:01:44.645Z,97525.72
2022-09-06T17:04:14.353Z,97521.25
2022-09-06T17:06:48.980Z,97516.69
2022-09-06T17:09:20.523Z,97508.31
2022-09-06T17:11:50.223Z,97523.09
2022-09-06T17:14:20.538Z,97523.22
2022-09-06T17:17:07.477Z,97514.63
2022-09-06T17:19:40.007Z,97520.63
2022-09-06T17:22:10.512Z,97507.50
2022-09-06T17:24:41.600Z,97509.00
2022-09-06T17:27:10.626Z,97504.53
2022-09-06T17:29:41.366Z,97513.84
2022-09-06T17:32:11.067Z,97519.19
2022-09-06T17:34:40.533Z,97525.84
2022-09-06T17:37:09.206Z,97535.13
2022-09-06T17:39:40.746Z,97530.88
2022-09-06T17:42:09.403Z,97520.91
2022-09-06T17:44:38.113Z,97524.00
2022-09-06T17:47:13.037Z,97536.28
2022-09-06T17:49:42.816Z,97539.16
2022-09-06T17:52:11.376Z,97530.66
2022-09-06T17:54:40.333Z,97521.19
2022-09-06T17:57:08.804Z,97515.63
2022-09-06T17:59:38.432Z,97509.75
2022-09-06T18:02:08.681Z,97509.03
2022-09-06T18:04:37.222Z,97502.69
2022-09-06T18:07:05.821Z,97488.97
2022-09-06T18:09:34.099Z,97498.75
2022-09-06T18:12:02.282Z,97498.03
2022-09-06T18:14:31.171Z,97508.91
2022-09-06T18:17:00.310Z,97523.25
2022-09-06T18:19:30.573Z,97562.22
2022-09-06T18:21:59.218Z,97567.63
2022-09-06T18:24:28.045Z,97590.34
2022-09-06T18:26:56.578Z,97657.59
2022-09-06T18:29:25.282Z,97705.72
2022-09-06T18:31:55.519Z,97725.00
2022-09-06T18:34:25.843Z,97743.94
2022-09-06T18:36:57.333Z,97746.06
2022-09-06T18:39:26.563Z,97762.84
2022-09-06T18:42:11.448Z,97781.19
2022-09-06T18:44:41.011Z,97786.72
2022-09-06T18:47:12.628Z,97783.78
2022-09-06T18:49:44.285Z,97775.97
2022-09-06T18:52:15.153Z,97785.94
2022-09-06T18:54:45.244Z,97790.53
2022-09-06T18:57:15.864Z,97808.22
2022-09-06T18:59:45.562Z,97815.94
2022-09-06T19:02:38.386Z,97819.31
2022-09-06T19:08:03.739Z,97834.28
2022-09-06T19:10:32.960Z,97839.13
2022-09-06T19:13:01.747Z,97832.09
2022-09-06T19:15:30.839Z,97816.94
2022-09-06T19:17:59.638Z,97807.13
2022-09-06T19:20:28.365Z,97798.56
2022-09-06T19:22:57.591Z,97797.25
2022-09-06T19:25:28.031Z,97801.25
2022-09-06T19:27:57.020Z,97804.41
2022-09-06T19:30:25.653Z,97812.81
2022-09-06T19:32:54.422Z,97810.25
2022-09-06T19:35:23.112Z,97818.03
2022-09-06T19:37:53.788Z,97816.88
2022-09-06T19:40:23.302Z,97811.00
2022-09-06T19:42:55.535Z,97813.59
2022-09-06T19:45:25.340Z,97816.84
2022-09-06T19:47:54.656Z,97817.09
2022-09-06T19:50:24.509Z,97843.19
2022-09-06T19:52:53.589Z,97842.00
2022-09-06T19:55:22.481Z,97842.59
2022-09-06T19:57:54.609Z,97845.25
2022-09-06T20:00:23.399Z,97849.44
2022-09-06T20:02:53.744Z,97847.66
2022-09-06T20:05:24.048Z,97841.69
2022-09-06T20:07:52.729Z,97835.56
2022-09-06T20:10:28.677Z,97850.22
2022-09-06T20:13:25.130Z,97862.72
2022-09-06T20:16:06.210Z,97857.78
2022-09-06T20:18:38.501Z,97854.94
2022-09-06T20:21:08.231Z,97849.59
2022-09-06T20:23:37.635Z,97842.81
2022-09-06T20:29:21.140Z,97837.56
2022-09-06T20:31:55.673Z,97842.94
2022-09-06T20:34:24.676Z,97857.69
2022-09-06T20:36:55.806Z,97863.84
2022-09-06T20:39:27.039Z,97851.19
2022-09-06T20:41:58.235Z,97854.53
2022-09-06T20:44:28.035Z,97865.75
2022-09-06T20:47:07.040Z,97863.72
2022-09-06T20:49:36.315Z,97878.28
2022-09-06T20:52:05.100Z,97881.84
2022-09-06T20:54:34.485Z,97878.53
2022-09-06T20:57:05.245Z,97877.56
2022-09-06T20:59:37.928Z,97872.78
2022-09-06T21:02:10.362Z,97860.47
2022-09-06T21:04:40.048Z,97857.88
2022-09-06T21:07:09.003Z,97859.34
2022-09-06T21:12:25.405Z,97866.59
2022-09-06T21:14:55.359Z,97876.03
2022-09-06T21:17:25.301Z,97874.66
2022-09-06T21:19:53.734Z,97863.22
2022-09-06T21:22:22.164Z,97857.34
2022-09-06T21:24:50.816Z,97874.09
2022-09-06T21:27:19.663Z,97883.50
2022-09-06T21:29:48.472Z,97888.94
2022-09-06T21:32:17.044Z,97888.94
2022-09-06T21:34:48.188Z,97882.75
2022-09-06T21:37:18.109Z,97882.22
2022-09-06T21:39:46.588Z,97895.25
2022-09-06T21:42:14.891Z,97890.84
2022-09-06T21:44:43.322Z,97890.63
2022-09-06T21:47:14.610Z,97901.84
2022-09-06T21:49:43.343Z,97905.50
2022-09-06T21:52:13.163Z,97891.69
2022-09-06T21:54:41.480Z,97889.41
2022-09-06T21:57:10.121Z,97888.94
2022-09-06T21:59:39.435Z,97890.53
2022-09-06T22:02:11.113Z,97883.84
2022-09-06T22:04:39.875Z,97886.31
2022-09-06T22:07:08.124Z,97880.00
2022-09-06T22:09:39.015Z,97872.03
2022-09-06T22:12:08.645Z,97865.69
2022-09-06T22:14:37.185Z,97865.81
2022-09-06T22:17:05.607Z,97864.06
2022-09-06T22:19:34.023Z,97857.09
2022-09-06T22:22:02.272Z,97841.06
2022-09-06T22:24:30.625Z,97845.25
2022-09-06T22:27:00.252Z,97846.88
2022-09-06T22:29:28.643Z,97836.09
2022-09-06T22:31:57.445Z,97837.41
2022-09-06T22:34:25.774Z,97832.66
2022-09-06T22:36:54.661Z,97826.44
2022-09-06T22:39:22.960Z,97825.06
2022-09-06T22:41:51.281Z,97823.75
2022-09-06T22:44:21.179Z,97824.28
2022-09-06T22:46:49.532Z,97815.69
2022-09-06T22:49:17.791Z,97817.50
2022-09-06T22:51:46.158Z,97808.78
2022-09-06T22:54:14.421Z,97801.31
2022-09-06T22:56:42.674Z,97798.88
2022-09-06T22:59:10.970Z,97803.13
2022-09-06T23:01:40.794Z,97807.44
2022-09-06T23:04:10.200Z,97801.47
2022-09-06T23:06:38.546Z,97792.44
2022-09-06T23:09:07.148Z,97782.81
2022-09-06T23:11:35.303Z,97781.88
2022-09-06T23:14:05.003Z,97777.78
2022-09-06T23:16:33.464Z,97778.13
2022-09-06T23:19:03.329Z,97776.50
2022-09-06T23:21:31.637Z,97778.75
2022-09-06T23:24:00.272Z,97766.63
2022-09-06T23:26:30.794Z,97764.56
2022-09-06T23:29:00.232Z,97775.03
2022-09-06T23:31:29.745Z,97772.19
2022-09-06T23:33:59.085Z,97778.50
2022-09-06T23:36:29.284Z,97781.84
2022-09-06T23:38:58.257Z,97780.41
2022-09-06T23:41:26.799Z,97769.69
2022-09-06T23:43:55.251Z,97766.13
2022-09-06T23:46:23.616Z,97772.56
2022-09-06T23:48:52.163Z,97764.97
2022-09-06T23:51:20.597Z,97763.50
2022-09-06T23:53:50.444Z,97764.81
2022-09-06T23:56:18.733Z,97769.22
2022-09-06T23:58:46.984Z,97755.50
